sensor_id;sensor_type;location;lat;lon;timestamp;P1;durP1;ratioP1;P2;durP2;ratioP2
34278;SDS011;20538;51.528;9.942;2023-11-19T00:01:39;0.80;;;0.75;;
34278;SDS011;20538;51.528;9.942;2023-11-19T00:04:05;0.80;;;0.80;;
34278;SDS011;20538;51.528;9.942;2023-11-19T00:06:31;0.95;;;0.65;;
34278;SDS011;20538;51.528;9.942;2023-11-19T00:08:57;0.80;;;0.80;;
34278;SDS011;20538;51.528;9.942;2023-11-19T00:11:24;0.60;;;0.60;;
34278;SDS011;20538;51.528;9.942;2023-11-19T00:13:49;1.38;;;1.13;;
34278;SDS011;20538;51.528;9.942;2023-11-19T00:16:15;0.75;;;0.57;;
34278;SDS011;20538;51.528;9.942;2023-11-19T00:18:41;1.77;;;0.80;;
34278;SDS011;20538;51.528;9.942;2023-11-19T00:21:07;0.95;;;0.85;;
34278;SDS011;20538;51.528;9.942;2023-11-19T00:23:33;1.02;;;0.80;;
34278;SDS011;20538;51.528;9.942;2023-11-19T00:25:59;0.60;;;0.52;;
34278;SDS011;20538;51.528;9.942;2023-11-19T00:28:24;1.38;;;0.80;;
34278;SDS011;20538;51.528;9.942;2023-11-19T00:30:50;0.82;;;0.82;;
34278;SDS011;20538;51.528;9.942;2023-11-19T00:33:15;0.63;;;0.63;;
34278;SDS011;20538;51.528;9.942;2023-11-19T00:35:41;0.57;;;0.57;;
34278;SDS011;20538;51.528;9.942;2023-11-19T00:38:06;0.60;;;0.60;;
34278;SDS011;20538;51.528;9.942;2023-11-19T00:40:32;0.68;;;0.60;;
34278;SDS011;20538;51.528;9.942;2023-11-19T00:42:58;1.13;;;0.73;;
34278;SDS011;20538;51.528;9.942;2023-11-19T00:45:23;0.43;;;0.43;;
34278;SDS011;20538;51.528;9.942;2023-11-19T00:47:49;0.30;;;0.30;;
34278;SDS011;20538;51.528;9.942;2023-11-19T00:50:14;1.05;;;0.70;;
34278;SDS011;20538;51.528;9.942;2023-11-19T00:52:40;0.80;;;0.60;;
34278;SDS011;20538;51.528;9.942;2023-11-19T00:55:06;0.95;;;0.55;;
34278;SDS011;20538;51.528;9.942;2023-11-19T00:57:32;0.30;;;0.30;;
34278;SDS011;20538;51.528;9.942;2023-11-19T00:59:58;0.57;;;0.50;;
34278;SDS011;20538;51.528;9.942;2023-11-19T01:02:24;0.60;;;0.60;;
34278;SDS011;20538;51.528;9.942;2023-11-19T01:04:49;0.50;;;0.50;;
34278;SDS011;20538;51.528;9.942;2023-11-19T01:07:15;0.57;;;0.55;;
34278;SDS011;20538;51.528;9.942;2023-11-19T01:09:44;0.75;;;0.32;;
34278;SDS011;20538;51.528;9.942;2023-11-19T01:12:10;0.47;;;0.47;;
34278;SDS011;20538;51.528;9.942;2023-11-19T01:14:35;0.30;;;0.30;;
34278;SDS011;20538;51.528;9.942;2023-11-19T01:17:01;0.52;;;0.38;;
34278;SDS011;20538;51.528;9.942;2023-11-19T01:19:27;0.32;;;0.32;;
34278;SDS011;20538;51.528;9.942;2023-11-19T01:21:53;0.38;;;0.28;;
34278;SDS011;20538;51.528;9.942;2023-11-19T01:24:20;0.30;;;0.30;;
34278;SDS011;20538;51.528;9.942;2023-11-19T01:26:46;0.30;;;0.30;;
34278;SDS011;20538;51.528;9.942;2023-11-19T01:29:15;0.22;;;0.20;;
34278;SDS011;20538;51.528;9.942;2023-11-19T01:31:41;0.22;;;0.22;;
34278;SDS011;20538;51.528;9.942;2023-11-19T01:34:07;0.20;;;0.20;;
34278;SDS011;20538;51.528;9.942;2023-11-19T01:36:33;0.20;;;0.20;;
34278;SDS011;20538;51.528;9.942;2023-11-19T01:38:59;0.35;;;0.35;;
34278;SDS011;20538;51.528;9.942;2023-11-19T01:41:24;1.85;;;0.38;;
34278;SDS011;20538;51.528;9.942;2023-11-19T01:43:50;0.30;;;0.30;;
34278;SDS011;20538;51.528;9.942;2023-11-19T01:46:16;0.20;;;0.20;;
34278;SDS011;20538;51.528;9.942;2023-11-19T01:48:45;0.20;;;0.20;;
34278;SDS011;20538;51.528;9.942;2023-11-19T01:51:15;1.48;;;0.30;;
34278;SDS011;20538;51.528;9.942;2023-11-19T01:53:42;0.28;;;0.28;;
34278;SDS011;20538;51.528;9.942;2023-11-19T01:56:09;0.20;;;0.20;;
34278;SDS011;20538;51.528;9.942;2023-11-19T01:58:37;0.13;;;0.13;;
34278;SDS011;20538;51.528;9.942;2023-11-19T02:01:05;1.25;;;0.32;;
34278;SDS011;20538;51.528;9.942;2023-11-19T02:03:35;2.20;;;0.20;;
34278;SDS011;20538;51.528;9.942;2023-11-19T02:06:00;0.30;;;0.30;;
34278;SDS011;20538;51.528;9.942;2023-11-19T02:08:26;0.47;;;0.30;;
34278;SDS011;20538;51.528;9.942;2023-11-19T02:10:55;0.10;;;0.10;;
34278;SDS011;20538;51.528;9.942;2023-11-19T02:13:25;0.20;;;0.20;;
34278;SDS011;20538;51.528;9.942;2023-11-19T02:15:51;0.43;;;0.20;;
34278;SDS011;20538;51.528;9.942;2023-11-19T02:18:21;0.22;;;0.22;;
34278;SDS011;20538;51.528;9.942;2023-11-19T02:20:47;0.22;;;0.22;;
34278;SDS011;20538;51.528;9.942;2023-11-19T02:23:17;0.25;;;0.25;;
34278;SDS011;20538;51.528;9.942;2023-11-19T02:25:52;0.75;;;0.40;;
34278;SDS011;20538;51.528;9.942;2023-11-19T02:28:20;0.20;;;0.20;;
34278;SDS011;20538;51.528;9.942;2023-11-19T02:30:47;0.35;;;0.20;;
34278;SDS011;20538;51.528;9.942;2023-11-19T02:33:12;3.63;;;0.30;;
34278;SDS011;20538;51.528;9.942;2023-11-19T02:35:38;0.50;;;0.30;;
34278;SDS011;20538;51.528;9.942;2023-11-19T02:38:05;0.40;;;0.30;;
34278;SDS011;20538;51.528;9.942;2023-11-19T02:40:32;0.20;;;0.20;;
34278;SDS011;20538;51.528;9.942;2023-11-19T02:42:57;0.10;;;0.10;;
34278;SDS011;20538;51.528;9.942;2023-11-19T02:45:23;0.30;;;0.28;;
34278;SDS011;20538;51.528;9.942;2023-11-19T02:47:49;0.28;;;0.20;;
34278;SDS011;20538;51.528;9.942;2023-11-19T02:50:15;0.43;;;0.30;;
34278;SDS011;20538;51.528;9.942;2023-11-19T02:52:42;0.30;;;0.30;;
34278;SDS011;20538;51.528;9.942;2023-11-19T02:55:10;0.20;;;0.10;;
34278;SDS011;20538;51.528;9.942;2023-11-19T02:57:40;0.20;;;0.20;;
34278;SDS011;20538;51.528;9.942;2023-11-19T03:02:44;0.20;;;0.20;;
34278;SDS011;20538;51.528;9.942;2023-11-19T03:05:19;0.20;;;0.20;;
34278;SDS011;20538;51.528;9.942;2023-11-19T03:07:44;0.38;;;0.30;;
34278;SDS011;20538;51.528;9.942;2023-11-19T03:10:10;0.55;;;0.30;;
34278;SDS011;20538;51.528;9.942;2023-11-19T03:12:43;0.65;;;0.32;;
34278;SDS011;20538;51.528;9.942;2023-11-19T03:15:10;0.50;;;0.50;;
34278;SDS011;20538;51.528;9.942;2023-11-19T03:17:39;1.10;;;0.52;;
34278;SDS011;20538;51.528;9.942;2023-11-19T03:20:06;0.40;;;0.30;;
34278;SDS011;20538;51.528;9.942;2023-11-19T03:22:39;0.47;;;0.47;;
34278;SDS011;20538;51.528;9.942;2023-11-19T03:25:06;0.30;;;0.30;;
34278;SDS011;20538;51.528;9.942;2023-11-19T03:27:33;1.35;;;0.60;;
34278;SDS011;20538;51.528;9.942;2023-11-19T03:30:01;0.28;;;0.28;;
34278;SDS011;20538;51.528;9.942;2023-11-19T03:32:28;0.22;;;0.22;;
34278;SDS011;20538;51.528;9.942;2023-11-19T03:34:54;0.63;;;0.50;;
34278;SDS011;20538;51.528;9.942;2023-11-19T03:37:20;0.20;;;0.20;;
34278;SDS011;20538;51.528;9.942;2023-11-19T03:39:46;0.32;;;0.32;;
34278;SDS011;20538;51.528;9.942;2023-11-19T03:42:11;0.50;;;0.50;;
34278;SDS011;20538;51.528;9.942;2023-11-19T03:44:38;0.68;;;0.50;;
34278;SDS011;20538;51.528;9.942;2023-11-19T03:47:04;0.63;;;0.50;;
34278;SDS011;20538;51.528;9.942;2023-11-19T03:49:29;0.43;;;0.40;;
34278;SDS011;20538;51.528;9.942;2023-11-19T03:51:55;0.70;;;0.45;;
34278;SDS011;20538;51.528;9.942;2023-11-19T03:54:20;0.50;;;0.50;;
34278;SDS011;20538;51.528;9.942;2023-11-19T03:56:48;2.75;;;0.35;;
34278;SDS011;20538;51.528;9.942;2023-11-19T03:59:13;0.77;;;0.45;;
34278;SDS011;20538;51.528;9.942;2023-11-19T04:01:40;0.63;;;0.35;;
34278;SDS011;20538;51.528;9.942;2023-11-19T04:04:06;1.55;;;0.60;;
34278;SDS011;20538;51.528;9.942;2023-11-19T04:06:32;0.77;;;0.47;;
34278;SDS011;20538;51.528;9.942;2023-11-19T04:08:57;1.15;;;0.60;;
34278;SDS011;20538;51.528;9.942;2023-11-19T04:11:23;0.50;;;0.50;;
34278;SDS011;20538;51.528;9.942;2023-11-19T04:13:48;0.68;;;0.60;;
34278;SDS011;20538;51.528;9.942;2023-11-19T04:16:14;1.13;;;0.63;;
34278;SDS011;20538;51.528;9.942;2023-11-19T04:18:40;0.95;;;0.57;;
34278;SDS011;20538;51.528;9.942;2023-11-19T04:21:06;1.38;;;0.50;;
34278;SDS011;20538;51.528;9.942;2023-11-19T04:23:32;1.05;;;0.57;;
34278;SDS011;20538;51.528;9.942;2023-11-19T04:25:58;0.68;;;0.52;;
34278;SDS011;20538;51.528;9.942;2023-11-19T04:28:24;0.52;;;0.50;;
34278;SDS011;20538;51.528;9.942;2023-11-19T04:30:52;0.50;;;0.50;;
34278;SDS011;20538;51.528;9.942;2023-11-19T04:33:17;0.68;;;0.50;;
34278;SDS011;20538;51.528;9.942;2023-11-19T04:35:43;0.32;;;0.30;;
34278;SDS011;20538;51.528;9.942;2023-11-19T04:38:08;0.88;;;0.65;;
34278;SDS011;20538;51.528;9.942;2023-11-19T04:40:34;0.43;;;0.43;;
34278;SDS011;20538;51.528;9.942;2023-11-19T04:42:59;3.63;;;0.52;;
34278;SDS011;20538;51.528;9.942;2023-11-19T04:45:25;0.30;;;0.30;;
34278;SDS011;20538;51.528;9.942;2023-11-19T04:47:51;0.95;;;0.73;;
34278;SDS011;20538;51.528;9.942;2023-11-19T04:50:16;0.25;;;0.25;;
34278;SDS011;20538;51.528;9.942;2023-11-19T04:52:42;0.40;;;0.40;;
34278;SDS011;20538;51.528;9.942;2023-11-19T04:55:10;0.93;;;0.43;;
34278;SDS011;20538;51.528;9.942;2023-11-19T04:57:37;0.93;;;0.50;;
34278;SDS011;20538;51.528;9.942;2023-11-19T05:00:03;0.32;;;0.32;;
34278;SDS011;20538;51.528;9.942;2023-11-19T05:02:30;0.40;;;0.40;;
34278;SDS011;20538;51.528;9.942;2023-11-19T05:04:55;1.20;;;0.57;;
34278;SDS011;20538;51.528;9.942;2023-11-19T05:07:21;1.35;;;0.70;;
34278;SDS011;20538;51.528;9.942;2023-11-19T05:09:47;0.60;;;0.60;;
34278;SDS011;20538;51.528;9.942;2023-11-19T05:12:12;0.77;;;0.45;;
34278;SDS011;20538;51.528;9.942;2023-11-19T05:14:38;0.65;;;0.60;;
34278;SDS011;20538;51.528;9.942;2023-11-19T05:17:04;0.85;;;0.80;;
34278;SDS011;20538;51.528;9.942;2023-11-19T05:19:29;0.50;;;0.50;;
34278;SDS011;20538;51.528;9.942;2023-11-19T05:21:55;6.35;;;0.47;;
34278;SDS011;20538;51.528;9.942;2023-11-19T05:24:20;0.70;;;0.52;;
34278;SDS011;20538;51.528;9.942;2023-11-19T05:26:46;0.50;;;0.47;;
34278;SDS011;20538;51.528;9.942;2023-11-19T05:29:15;0.65;;;0.60;;
34278;SDS011;20538;51.528;9.942;2023-11-19T05:31:41;0.77;;;0.77;;
34278;SDS011;20538;51.528;9.942;2023-11-19T05:34:07;5.43;;;0.77;;
34278;SDS011;20538;51.528;9.942;2023-11-19T05:36:32;2.05;;;0.60;;
34278;SDS011;20538;51.528;9.942;2023-11-19T05:38:58;0.98;;;0.70;;
34278;SDS011;20538;51.528;9.942;2023-11-19T05:41:24;0.70;;;0.70;;
34278;SDS011;20538;51.528;9.942;2023-11-19T05:43:49;0.73;;;0.57;;
34278;SDS011;20538;51.528;9.942;2023-11-19T05:46:15;1.05;;;0.88;;
34278;SDS011;20538;51.528;9.942;2023-11-19T05:48:41;0.68;;;0.60;;
34278;SDS011;20538;51.528;9.942;2023-11-19T05:51:07;0.50;;;0.50;;
34278;SDS011;20538;51.528;9.942;2023-11-19T05:53:33;0.90;;;0.60;;
34278;SDS011;20538;51.528;9.942;2023-11-19T05:55:59;0.65;;;0.60;;
34278;SDS011;20538;51.528;9.942;2023-11-19T05:58:28;1.23;;;0.70;;
34278;SDS011;20538;51.528;9.942;2023-11-19T06:00:55;4.95;;;0.70;;
34278;SDS011;20538;51.528;9.942;2023-11-19T06:03:21;0.35;;;0.30;;
34278;SDS011;20538;51.528;9.942;2023-11-19T06:05:48;1.05;;;0.68;;
34278;SDS011;20538;51.528;9.942;2023-11-19T06:08:14;2.67;;;0.82;;
34278;SDS011;20538;51.528;9.942;2023-11-19T06:10:43;0.57;;;0.57;;
34278;SDS011;20538;51.528;9.942;2023-11-19T06:13:11;0.95;;;0.60;;
34278;SDS011;20538;51.528;9.942;2023-11-19T06:15:37;1.08;;;0.50;;
34278;SDS011;20538;51.528;9.942;2023-11-19T06:18:03;1.00;;;0.60;;
34278;SDS011;20538;51.528;9.942;2023-11-19T06:20:32;0.60;;;0.60;;
34278;SDS011;20538;51.528;9.942;2023-11-19T06:22:58;1.40;;;0.98;;
34278;SDS011;20538;51.528;9.942;2023-11-19T06:25:24;1.05;;;0.68;;
34278;SDS011;20538;51.528;9.942;2023-11-19T06:27:50;2.13;;;1.08;;
34278;SDS011;20538;51.528;9.942;2023-11-19T06:30:16;0.75;;;0.70;;
34278;SDS011;20538;51.528;9.942;2023-11-19T06:32:42;3.88;;;0.80;;
34278;SDS011;20538;51.528;9.942;2023-11-19T06:35:08;0.73;;;0.55;;
34278;SDS011;20538;51.528;9.942;2023-11-19T06:37:34;0.80;;;0.80;;
34278;SDS011;20538;51.528;9.942;2023-11-19T06:40:01;0.88;;;0.88;;
34278;SDS011;20538;51.528;9.942;2023-11-19T06:42:27;6.03;;;0.75;;
34278;SDS011;20538;51.528;9.942;2023-11-19T06:44:53;0.93;;;0.73;;
34278;SDS011;20538;51.528;9.942;2023-11-19T06:47:21;0.82;;;0.60;;
34278;SDS011;20538;51.528;9.942;2023-11-19T06:49:47;1.60;;;0.95;;
34278;SDS011;20538;51.528;9.942;2023-11-19T06:52:13;1.50;;;1.00;;
34278;SDS011;20538;51.528;9.942;2023-11-19T06:54:39;2.08;;;1.17;;
34278;SDS011;20538;51.528;9.942;2023-11-19T06:57:04;1.75;;;0.98;;
34278;SDS011;20538;51.528;9.942;2023-11-19T06:59:30;3.67;;;1.25;;
34278;SDS011;20538;51.528;9.942;2023-11-19T07:01:56;3.97;;;1.30;;
34278;SDS011;20538;51.528;9.942;2023-11-19T07:04:21;2.45;;;1.35;;
34278;SDS011;20538;51.528;9.942;2023-11-19T07:06:47;3.00;;;1.50;;
34278;SDS011;20538;51.528;9.942;2023-11-19T07:09:18;3.80;;;1.17;;
34278;SDS011;20538;51.528;9.942;2023-11-19T07:11:44;1.63;;;1.13;;
34278;SDS011;20538;51.528;9.942;2023-11-19T07:14:10;1.55;;;1.25;;
34278;SDS011;20538;51.528;9.942;2023-11-19T07:16:36;2.65;;;1.42;;
34278;SDS011;20538;51.528;9.942;2023-11-19T07:19:03;1.90;;;1.17;;
34278;SDS011;20538;51.528;9.942;2023-11-19T07:21:30;3.38;;;1.75;;
34278;SDS011;20538;51.528;9.942;2023-11-19T07:23:56;1.38;;;1.10;;
34278;SDS011;20538;51.528;9.942;2023-11-19T07:26:22;3.83;;;1.10;;
34278;SDS011;20538;51.528;9.942;2023-11-19T07:28:48;3.75;;;1.23;;
34278;SDS011;20538;51.528;9.942;2023-11-19T07:31:14;4.43;;;1.05;;
34278;SDS011;20538;51.528;9.942;2023-11-19T07:33:40;2.10;;;1.42;;
34278;SDS011;20538;51.528;9.942;2023-11-19T07:36:09;1.73;;;1.42;;
34278;SDS011;20538;51.528;9.942;2023-11-19T07:38:35;2.33;;;1.30;;
34278;SDS011;20538;51.528;9.942;2023-11-19T07:41:01;1.92;;;1.20;;
34278;SDS011;20538;51.528;9.942;2023-11-19T07:43:28;1.88;;;1.15;;
34278;SDS011;20538;51.528;9.942;2023-11-19T07:45:54;3.55;;;1.25;;
34278;SDS011;20538;51.528;9.942;2023-11-19T07:48:20;3.92;;;1.60;;
34278;SDS011;20538;51.528;9.942;2023-11-19T07:50:49;10.43;;;1.67;;
34278;SDS011;20538;51.528;9.942;2023-11-19T07:53:15;2.38;;;1.80;;
34278;SDS011;20538;51.528;9.942;2023-11-19T07:55:42;6.35;;;2.05;;
34278;SDS011;20538;51.528;9.942;2023-11-19T07:58:09;4.57;;;1.40;;
34278;SDS011;20538;51.528;9.942;2023-11-19T08:00:35;3.58;;;1.92;;
34278;SDS011;20538;51.528;9.942;2023-11-19T08:03:01;6.00;;;1.35;;
34278;SDS011;20538;51.528;9.942;2023-11-19T08:05:26;1.67;;;1.55;;
34278;SDS011;20538;51.528;9.942;2023-11-19T08:07:52;3.45;;;1.10;;
34278;SDS011;20538;51.528;9.942;2023-11-19T08:10:18;3.08;;;1.48;;
34278;SDS011;20538;51.528;9.942;2023-11-19T08:12:44;4.50;;;1.70;;
34278;SDS011;20538;51.528;9.942;2023-11-19T08:15:10;3.10;;;1.67;;
34278;SDS011;20538;51.528;9.942;2023-11-19T08:17:36;2.65;;;1.67;;
34278;SDS011;20538;51.528;9.942;2023-11-19T08:20:02;1.83;;;1.27;;
34278;SDS011;20538;51.528;9.942;2023-11-19T08:22:29;1.70;;;1.38;;
34278;SDS011;20538;51.528;9.942;2023-11-19T08:24:55;3.13;;;1.13;;
34278;SDS011;20538;51.528;9.942;2023-11-19T08:27:21;2.30;;;1.60;;
34278;SDS011;20538;51.528;9.942;2023-11-19T08:29:53;2.35;;;1.45;;
34278;SDS011;20538;51.528;9.942;2023-11-19T08:32:20;2.75;;;1.25;;
34278;SDS011;20538;51.528;9.942;2023-11-19T08:34:46;1.60;;;1.27;;
34278;SDS011;20538;51.528;9.942;2023-11-19T08:37:12;6.32;;;2.05;;
34278;SDS011;20538;51.528;9.942;2023-11-19T08:39:37;2.50;;;1.80;;
34278;SDS011;20538;51.528;9.942;2023-11-19T08:42:03;7.25;;;1.30;;
34278;SDS011;20538;51.528;9.942;2023-11-19T08:44:29;6.70;;;1.55;;
34278;SDS011;20538;51.528;9.942;2023-11-19T08:46:55;4.68;;;1.85;;
34278;SDS011;20538;51.528;9.942;2023-11-19T08:49:20;2.40;;;1.05;;
34278;SDS011;20538;51.528;9.942;2023-11-19T08:51:46;2.85;;;1.67;;
34278;SDS011;20538;51.528;9.942;2023-11-19T08:54:12;2.15;;;1.75;;
34278;SDS011;20538;51.528;9.942;2023-11-19T08:56:38;3.42;;;1.45;;
34278;SDS011;20538;51.528;9.942;2023-11-19T08:59:04;8.60;;;1.00;;
34278;SDS011;20538;51.528;9.942;2023-11-19T09:01:30;8.43;;;1.20;;
34278;SDS011;20538;51.528;9.942;2023-11-19T09:03:56;4.72;;;1.33;;
34278;SDS011;20538;51.528;9.942;2023-11-19T09:06:22;3.13;;;1.23;;
34278;SDS011;20538;51.528;9.942;2023-11-19T09:08:48;4.63;;;1.20;;
34278;SDS011;20538;51.528;9.942;2023-11-19T09:11:14;7.88;;;1.70;;
34278;SDS011;20538;51.528;9.942;2023-11-19T09:13:39;16.65;;;3.08;;
34278;SDS011;20538;51.528;9.942;2023-11-19T09:16:05;10.70;;;2.92;;
34278;SDS011;20538;51.528;9.942;2023-11-19T09:18:32;14.07;;;1.75;;
34278;SDS011;20538;51.528;9.942;2023-11-19T09:20:58;12.93;;;1.88;;
34278;SDS011;20538;51.528;9.942;2023-11-19T09:23:24;4.47;;;1.55;;
34278;SDS011;20538;51.528;9.942;2023-11-19T09:25:50;14.07;;;2.45;;
34278;SDS011;20538;51.528;9.942;2023-11-19T09:28:16;3.17;;;1.38;;
34278;SDS011;20538;51.528;9.942;2023-11-19T09:30:42;6.93;;;1.52;;
34278;SDS011;20538;51.528;9.942;2023-11-19T09:33:08;6.10;;;1.42;;
34278;SDS011;20538;51.528;9.942;2023-11-19T09:35:34;7.05;;;1.27;;
34278;SDS011;20538;51.528;9.942;2023-11-19T09:38:00;1.55;;;1.20;;
34278;SDS011;20538;51.528;9.942;2023-11-19T09:40:26;11.48;;;2.17;;
34278;SDS011;20538;51.528;9.942;2023-11-19T09:42:53;8.02;;;1.67;;
34278;SDS011;20538;51.528;9.942;2023-11-19T09:45:20;6.80;;;1.00;;
34278;SDS011;20538;51.528;9.942;2023-11-19T09:47:46;9.05;;;1.55;;
34278;SDS011;20538;51.528;9.942;2023-11-19T09:50:16;3.50;;;0.88;;
34278;SDS011;20538;51.528;9.942;2023-11-19T09:52:46;3.78;;;1.75;;
34278;SDS011;20538;51.528;9.942;2023-11-19T09:55:13;8.88;;;1.55;;
34278;SDS011;20538;51.528;9.942;2023-11-19T09:57:39;12.98;;;2.00;;
34278;SDS011;20538;51.528;9.942;2023-11-19T10:00:09;10.80;;;1.92;;
34278;SDS011;20538;51.528;9.942;2023-11-19T10:02:36;10.20;;;1.77;;
34278;SDS011;20538;51.528;9.942;2023-11-19T10:05:04;12.18;;;1.42;;
34278;SDS011;20538;51.528;9.942;2023-11-19T10:07:32;4.03;;;1.02;;
34278;SDS011;20538;51.528;9.942;2023-11-19T10:10:02;13.65;;;1.33;;
34278;SDS011;20538;51.528;9.942;2023-11-19T10:12:30;12.05;;;1.35;;
34278;SDS011;20538;51.528;9.942;2023-11-19T10:14:57;14.77;;;1.23;;
34278;SDS011;20538;51.528;9.942;2023-11-19T10:17:32;6.65;;;1.63;;
34278;SDS011;20538;51.528;9.942;2023-11-19T10:19:58;22.48;;;1.88;;
34278;SDS011;20538;51.528;9.942;2023-11-19T10:22:24;5.22;;;1.05;;
34278;SDS011;20538;51.528;9.942;2023-11-19T10:24:51;7.72;;;1.55;;
34278;SDS011;20538;51.528;9.942;2023-11-19T10:27:17;11.02;;;2.05;;
34278;SDS011;20538;51.528;9.942;2023-11-19T10:29:46;12.80;;;2.30;;
34278;SDS011;20538;51.528;9.942;2023-11-19T10:32:12;12.60;;;1.90;;
34278;SDS011;20538;51.528;9.942;2023-11-19T10:34:39;21.15;;;1.88;;
34278;SDS011;20538;51.528;9.942;2023-11-19T10:37:06;13.43;;;2.50;;
34278;SDS011;20538;51.528;9.942;2023-11-19T10:42:18;11.50;;;1.38;;
34278;SDS011;20538;51.528;9.942;2023-11-19T10:44:44;7.45;;;1.42;;
34278;SDS011;20538;51.528;9.942;2023-11-19T10:47:09;14.55;;;1.20;;
34278;SDS011;20538;51.528;9.942;2023-11-19T10:49:36;9.20;;;1.35;;
34278;SDS011;20538;51.528;9.942;2023-11-19T10:52:03;6.68;;;1.02;;
34278;SDS011;20538;51.528;9.942;2023-11-19T10:54:32;10.60;;;2.50;;
34278;SDS011;20538;51.528;9.942;2023-11-19T10:57:02;14.05;;;1.20;;
34278;SDS011;20538;51.528;9.942;2023-11-19T10:59:31;5.25;;;1.23;;
34278;SDS011;20538;51.528;9.942;2023-11-19T11:01:57;4.35;;;1.20;;
34278;SDS011;20538;51.528;9.942;2023-11-19T11:04:25;6.78;;;1.50;;
34278;SDS011;20538;51.528;9.942;2023-11-19T11:06:55;4.75;;;1.33;;
34278;SDS011;20538;51.528;9.942;2023-11-19T11:09:23;12.05;;;1.67;;
34278;SDS011;20538;51.528;9.942;2023-11-19T11:11:51;9.57;;;1.80;;
34278;SDS011;20538;51.528;9.942;2023-11-19T11:14:19;4.75;;;1.10;;
34278;SDS011;20538;51.528;9.942;2023-11-19T11:16:48;12.38;;;1.92;;
34278;SDS011;20538;51.528;9.942;2023-11-19T11:19:18;12.13;;;1.58;;
34278;SDS011;20538;51.528;9.942;2023-11-19T11:21:45;9.93;;;1.58;;
34278;SDS011;20538;51.528;9.942;2023-11-19T11:38:15;12.25;;;2.63;;
34278;SDS011;20538;51.528;9.942;2023-11-19T11:41:06;6.80;;;1.00;;
34278;SDS011;20538;51.528;9.942;2023-11-19T11:43:49;7.30;;;1.25;;
34278;SDS011;20538;51.528;9.942;2023-11-19T11:49:03;14.18;;;2.05;;
34278;SDS011;20538;51.528;9.942;2023-11-19T11:54:10;20.13;;;1.85;;
34278;SDS011;20538;51.528;9.942;2023-11-19T11:57:02;10.40;;;1.63;;
34278;SDS011;20538;51.528;9.942;2023-11-19T12:02:10;14.88;;;1.70;;
34278;SDS011;20538;51.528;9.942;2023-11-19T12:04:38;6.28;;;1.65;;
34278;SDS011;20538;51.528;9.942;2023-11-19T12:07:05;10.15;;;1.52;;
34278;SDS011;20538;51.528;9.942;2023-11-19T12:09:32;8.18;;;1.88;;
34278;SDS011;20538;51.528;9.942;2023-11-19T12:19:59;9.15;;;1.77;;
34278;SDS011;20538;51.528;9.942;2023-11-19T12:22:25;13.63;;;2.10;;
34278;SDS011;20538;51.528;9.942;2023-11-19T12:24:52;3.38;;;1.25;;
34278;SDS011;20538;51.528;9.942;2023-11-19T12:27:21;15.73;;;1.70;;
34278;SDS011;20538;51.528;9.942;2023-11-19T12:29:47;11.93;;;1.83;;
34278;SDS011;20538;51.528;9.942;2023-11-19T12:32:13;6.35;;;1.27;;
34278;SDS011;20538;51.528;9.942;2023-11-19T12:34:40;12.45;;;2.08;;
34278;SDS011;20538;51.528;9.942;2023-11-19T12:37:06;10.63;;;2.42;;
34278;SDS011;20538;51.528;9.942;2023-11-19T12:39:32;15.13;;;2.00;;
34278;SDS011;20538;51.528;9.942;2023-11-19T12:41:58;5.15;;;1.83;;
34278;SDS011;20538;51.528;9.942;2023-11-19T12:44:27;10.52;;;1.67;;
34278;SDS011;20538;51.528;9.942;2023-11-19T12:47:06;10.65;;;1.35;;
34278;SDS011;20538;51.528;9.942;2023-11-19T12:49:34;14.18;;;2.05;;
34278;SDS011;20538;51.528;9.942;2023-11-19T12:52:00;12.00;;;1.35;;
34278;SDS011;20538;51.528;9.942;2023-11-19T12:54:33;13.45;;;1.75;;
34278;SDS011;20538;51.528;9.942;2023-11-19T12:56:59;12.73;;;2.13;;
34278;SDS011;20538;51.528;9.942;2023-11-19T12:59:24;8.45;;;1.63;;
34278;SDS011;20538;51.528;9.942;2023-11-19T13:01:55;8.40;;;1.92;;
34278;SDS011;20538;51.528;9.942;2023-11-19T13:04:28;8.80;;;1.45;;
34278;SDS011;20538;51.528;9.942;2023-11-19T13:06:58;15.27;;;1.67;;
34278;SDS011;20538;51.528;9.942;2023-11-19T13:09:24;10.98;;;1.85;;
34278;SDS011;20538;51.528;9.942;2023-11-19T13:11:51;5.75;;;1.38;;
34278;SDS011;20538;51.528;9.942;2023-11-19T13:14:17;8.48;;;1.40;;
34278;SDS011;20538;51.528;9.942;2023-11-19T13:16:44;6.97;;;1.17;;
34278;SDS011;20538;51.528;9.942;2023-11-19T13:19:13;11.07;;;1.95;;
34278;SDS011;20538;51.528;9.942;2023-11-19T13:21:39;11.45;;;2.10;;
34278;SDS011;20538;51.528;9.942;2023-11-19T13:24:07;3.08;;;1.10;;
34278;SDS011;20538;51.528;9.942;2023-11-19T13:26:34;8.88;;;1.60;;
34278;SDS011;20538;51.528;9.942;2023-11-19T13:29:00;20.27;;;2.03;;
34278;SDS011;20538;51.528;9.942;2023-11-19T13:31:26;16.77;;;2.03;;
34278;SDS011;20538;51.528;9.942;2023-11-19T13:33:52;15.60;;;1.73;;
34278;SDS011;20538;51.528;9.942;2023-11-19T13:36:17;7.40;;;1.70;;
34278;SDS011;20538;51.528;9.942;2023-11-19T13:38:44;6.30;;;1.80;;
34278;SDS011;20538;51.528;9.942;2023-11-19T13:41:12;5.15;;;1.45;;
34278;SDS011;20538;51.528;9.942;2023-11-19T13:43:39;7.35;;;1.95;;
34278;SDS011;20538;51.528;9.942;2023-11-19T13:46:05;8.75;;;1.63;;
34278;SDS011;20538;51.528;9.942;2023-11-19T13:48:31;8.80;;;1.80;;
34278;SDS011;20538;51.528;9.942;2023-11-19T13:50:57;9.57;;;1.92;;
34278;SDS011;20538;51.528;9.942;2023-11-19T13:53:23;10.52;;;2.13;;
34278;SDS011;20538;51.528;9.942;2023-11-19T13:55:49;7.30;;;1.55;;
34278;SDS011;20538;51.528;9.942;2023-11-19T13:58:15;12.20;;;2.08;;
34278;SDS011;20538;51.528;9.942;2023-11-19T14:00:41;10.73;;;1.95;;
34278;SDS011;20538;51.528;9.942;2023-11-19T14:03:07;3.95;;;0.93;;
34278;SDS011;20538;51.528;9.942;2023-11-19T14:05:34;7.88;;;1.70;;
34278;SDS011;20538;51.528;9.942;2023-11-19T14:08:00;9.27;;;1.85;;
34278;SDS011;20538;51.528;9.942;2023-11-19T14:10:26;8.23;;;1.50;;
34278;SDS011;20538;51.528;9.942;2023-11-19T14:12:52;10.98;;;1.77;;
34278;SDS011;20538;51.528;9.942;2023-11-19T14:15:17;10.27;;;1.48;;
34278;SDS011;20538;51.528;9.942;2023-11-19T14:17:43;9.70;;;1.40;;
34278;SDS011;20538;51.528;9.942;2023-11-19T14:20:09;6.82;;;1.60;;
34278;SDS011;20538;51.528;9.942;2023-11-19T14:22:41;15.70;;;1.98;;
34278;SDS011;20538;51.528;9.942;2023-11-19T14:25:07;9.75;;;1.50;;
34278;SDS011;20538;51.528;9.942;2023-11-19T14:27:36;3.78;;;1.67;;
34278;SDS011;20538;51.528;9.942;2023-11-19T14:30:04;14.57;;;2.25;;
34278;SDS011;20538;51.528;9.942;2023-11-19T14:32:37;20.25;;;1.90;;
34278;SDS011;20538;51.528;9.942;2023-11-19T14:35:04;11.02;;;1.50;;
34278;SDS011;20538;51.528;9.942;2023-11-19T14:37:30;11.02;;;2.65;;
34278;SDS011;20538;51.528;9.942;2023-11-19T14:39:56;8.85;;;1.92;;
34278;SDS011;20538;51.528;9.942;2023-11-19T14:42:23;8.48;;;1.67;;
34278;SDS011;20538;51.528;9.942;2023-11-19T14:44:50;5.38;;;0.90;;
34278;SDS011;20538;51.528;9.942;2023-11-19T14:47:18;7.90;;;1.88;;
34278;SDS011;20538;51.528;9.942;2023-11-19T14:49:47;3.83;;;1.65;;
34278;SDS011;20538;51.528;9.942;2023-11-19T14:52:13;10.50;;;2.60;;
34278;SDS011;20538;51.528;9.942;2023-11-19T14:54:39;9.88;;;1.73;;
34278;SDS011;20538;51.528;9.942;2023-11-19T14:57:05;14.48;;;1.75;;
34278;SDS011;20538;51.528;9.942;2023-11-19T14:59:35;14.65;;;1.60;;
34278;SDS011;20538;51.528;9.942;2023-11-19T15:02:02;15.35;;;1.58;;
34278;SDS011;20538;51.528;9.942;2023-11-19T15:04:28;6.70;;;1.17;;
34278;SDS011;20538;51.528;9.942;2023-11-19T15:06:56;9.15;;;1.25;;
34278;SDS011;20538;51.528;9.942;2023-11-19T15:09:23;6.32;;;1.02;;
34278;SDS011;20538;51.528;9.942;2023-11-19T15:11:49;6.30;;;1.55;;
34278;SDS011;20538;51.528;9.942;2023-11-19T15:14:15;6.47;;;1.27;;
34278;SDS011;20538;51.528;9.942;2023-11-19T15:16:43;9.18;;;1.60;;
34278;SDS011;20538;51.528;9.942;2023-11-19T15:19:10;4.35;;;1.33;;